Time;durP1;ratioP1;P1;durP2;ratioP2;P2;SDS_P1;SDS_P2;PMS_P1;PMS_P2;Temp;Humidity;BMP_temperature;BMP_pressure;BME280_temperature;BME280_humidity;BME280_pressure;Samples;Min_cycle;Max_cycle;Signal;HPM_P1;HPM_P2
2022/08/12 00:44:27;;;;;;;5.33;2.73;;;21.50;78.00;;;;;;5098435;28;20877;-65
2022/08/12 00:46:56;;;;;;;2.40;2.20;;;21.50;79.50;;;;;;5098601;28;20442;-59
2022/08/12 00:49:24;;;;;;;3.03;2.40;;;21.50;80.50;;;;;;5098148;28;20972;-59
2022/08/12 00:52:08;;;;;;;4.97;2.17;;;21.60;81.60;;;;;;5098332;28;20546;-62
2022/08/12 00:54:42;;;;;;;4.20;2.83;;;21.50;83.80;;;;;;5098219;28;20465;-59
2022/08/12 00:57:10;;;;;;;3.90;2.27;;;21.50;84.50;;;;;;5098333;28;20759;-56
2022/08/12 00:59:44;;;;;;;7.57;2.63;;;21.40;85.70;;;;;;5098319;28;20468;-60
2022/08/12 01:02:18;;;;;;;4.70;2.70;;;21.40;87.30;;;;;;5098055;28;20436;-59
2022/08/12 01:13:22;;;;;;;5.30;2.77;;;21.20;91.00;;;;;;5080816;28;20524;-60
2022/08/12 01:15:54;;;;;;;7.07;2.57;;;21.20;91.50;;;;;;5098364;28;20472;-59
2022/08/12 01:18:23;;;;;;;3.77;3.23;;;21.20;92.00;;;;;;5097863;28;20538;-60
2022/08/12 01:21:10;;;;;;;7.03;4.37;;;21.20;92.60;;;;;;5097205;28;20890;-60
2022/08/12 01:24:00;;;;;;;5.87;2.73;;;21.20;92.70;;;;;;5097362;28;20461;-59
2022/08/12 01:26:31;;;;;;;4.90;3.30;;;21.20;93.30;;;;;;5097545;28;20433;-59
2022/08/12 01:29:02;;;;;;;3.97;2.40;;;21.10;93.90;;;;;;5097692;28;20479;-60
2022/08/12 01:31:29;;;;;;;3.80;2.47;;;21.10;94.10;;;;;;5097546;28;20448;-59
2022/08/12 01:34:04;;;;;;;6.73;3.60;;;21.00;94.70;;;;;;5097593;28;20464;-61
2022/08/12 01:36:36;;;;;;;2.53;2.33;;;21.00;95.20;;;;;;5097620;28;20488;-60
2022/08/12 01:39:08;;;;;;;3.90;2.97;;;21.00;95.40;;;;;;5097454;28;20914;-64
2022/08/12 01:41:52;;;;;;;4.40;3.47;;;21.00;95.50;;;;;;5097636;28;20449;-61
2022/08/12 01:44:22;;;;;;;4.63;2.47;;;21.00;95.60;;;;;;5097305;28;20482;-59
2022/08/12 01:47:02;;;;;;;4.80;3.00;;;21.00;95.90;;;;;;5097733;28;20455;-61
2022/08/12 01:49:49;;;;;;;2.30;2.00;;;21.00;96.10;;;;;;5097259;28;20516;-57
2022/08/12 01:52:31;;;;;;;5.70;5.20;;;20.90;96.50;;;;;;5096817;28;20483;-59
2022/08/12 01:54:59;;;;;;;3.57;2.67;;;20.90;96.70;;;;;;5097509;28;20457;-59
2022/08/12 01:57:38;;;;;;;4.67;3.27;;;21.00;96.90;;;;;;5097494;28;20446;-60
2022/08/12 02:00:11;;;;;;;5.03;2.80;;;21.00;96.90;;;;;;5097123;28;20437;-60
2022/08/12 02:02:45;;;;;;;3.67;2.20;;;20.90;97.00;;;;;;5096960;28;20495;-59
2022/08/12 02:11:17;;;;;;;3.37;2.40;;;20.80;97.20;;;;;;5096747;28;20866;-58
2022/08/12 02:14:18;;;;;;;5.80;3.50;;;20.80;97.50;;;;;;5096630;28;20485;-58
2022/08/12 02:17:07;;;;;;;4.60;2.80;;;20.70;97.60;;;;;;5096829;28;20907;-59
2022/08/12 02:20:00;;;;;;;3.67;3.10;;;20.70;97.80;;;;;;5096576;28;20474;-60
2022/08/12 02:22:28;;;;;;;2.70;2.40;;;20.70;98.40;;;;;;5096739;28;20450;-60
2022/08/12 02:25:03;;;;;;;6.60;3.13;;;20.60;98.70;;;;;;5096528;28;20489;-60
2022/08/12 02:27:34;;;;;;;3.33;2.53;;;20.60;98.80;;;;;;5096450;28;20754;-58
2022/08/12 02:30:07;;;;;;;5.37;2.60;;;20.60;98.90;;;;;;5096115;28;20567;-58
2022/08/12 02:32:38;;;;;;;8.50;3.10;;;20.50;99.10;;;;;;5095972;28;20491;-59
2022/08/12 02:35:07;;;;;;;4.87;2.50;;;20.50;99.40;;;;;;5096193;28;20426;-58
2022/08/12 02:38:08;;;;;;;7.00;3.30;;;20.50;99.60;;;;;;5096476;28;20434;-61
2022/08/12 02:40:37;;;;;;;5.83;2.70;;;20.50;99.90;;;;;;5094814;28;20468;-59
2022/08/12 02:43:12;;;;;;;4.87;3.23;;;20.50;99.90;;;;;;5095917;28;20433;-59
2022/08/12 02:45:46;;;;;;;4.10;2.80;;;20.40;99.90;;;;;;5096182;28;20521;-58
2022/08/12 02:48:17;;;;;;;5.70;2.50;;;20.40;99.90;;;;;;5096176;28;20539;-58
2022/08/12 02:50:48;;;;;;;4.33;2.70;;;20.40;99.90;;;;;;5096224;28;20426;-59
2022/08/12 02:53:16;;;;;;;3.77;2.33;;;20.40;99.90;;;;;;5095779;28;20530;-57
2022/08/12 02:55:44;;;;;;;6.00;2.83;;;20.30;99.90;;;;;;5096153;28;20472;-62
2022/08/12 02:58:12;;;;;;;5.00;3.07;;;20.30;99.90;;;;;;5096270;28;20451;-60
2022/08/12 03:00:41;;;;;;;3.73;2.93;;;20.40;99.90;;;;;;5096170;28;20507;-58
2022/08/12 03:03:11;;;;;;;3.37;3.07;;;20.40;99.90;;;;;;5095941;28;20515;-56
2022/08/12 03:05:57;;;;;;;4.10;2.60;;;20.40;99.90;;;;;;5095623;28;20536;-54
2022/08/12 03:08:28;;;;;;;3.70;2.30;;;20.30;99.90;;;;;;5095511;28;20743;-58
2022/08/12 03:11:36;;;;;;;7.63;2.60;;;20.30;99.90;;;;;;5095824;28;20438;-59
2022/08/12 03:14:03;;;;;;;4.20;3.23;;;20.20;99.90;;;;;;5093063;28;20569;-57
2022/08/12 03:16:32;;;;;;;3.93;3.07;;;20.30;99.90;;;;;;5095424;28;20434;-59
2022/08/12 03:18:59;;;;;;;3.60;2.70;;;20.30;99.90;;;;;;5095609;28;20483;-61
2022/08/12 03:21:26;;;;;;;3.90;2.73;;;20.30;99.90;;;;;;5095907;28;20760;-59
2022/08/12 03:23:56;;;;;;;4.13;2.77;;;20.20;99.90;;;;;;5095133;28;20452;-59
2022/08/12 03:26:24;;;;;;;5.77;3.63;;;20.20;99.90;;;;;;5095559;28;20781;-58
2022/08/12 03:28:55;;;;;;;4.83;3.20;;;20.20;99.90;;;;;;5095121;28;20930;-58
2022/08/12 03:31:24;;;;;;;4.83;3.07;;;20.10;99.90;;;;;;5095447;28;20434;-59
2022/08/12 03:33:54;;;;;;;3.13;2.83;;;20.10;99.90;;;;;;5095132;28;20572;-56
2022/08/12 03:36:22;;;;;;;5.10;3.33;;;20.10;99.90;;;;;;5095119;28;20857;-58
2022/08/12 03:39:17;;;;;;;3.23;2.83;;;20.10;99.90;;;;;;5095509;28;20529;-58
2022/08/12 03:41:57;;;;;;;4.50;3.20;;;20.10;99.90;;;;;;5095608;28;20448;-61
2022/08/12 04:01:05;;;;;;;5.40;2.87;;;20.00;99.90;;;;;;5094895;28;20505;-61
2022/08/12 04:06:20;;;;;;;4.37;3.50;;;20.10;99.90;;;;;;5094884;28;20413;-59
2022/08/12 04:08:49;;;;;;;4.40;3.30;;;20.10;99.90;;;;;;5095000;28;20429;-58
2022/08/12 04:14:08;;;;;;;3.07;2.80;;;20.10;99.90;;;;;;5094643;28;20937;-60
2022/08/12 04:16:35;;;;;;;7.73;3.20;;;20.10;99.90;;;;;;5095125;28;20434;-60
2022/08/12 04:19:02;;;;;;;5.80;2.17;;;20.00;99.90;;;;;;5094520;28;20905;-56
2022/08/12 04:21:31;;;;;;;6.40;3.30;;;20.00;99.90;;;;;;5095060;28;20898;-60
2022/08/12 04:23:58;;;;;;;4.97;2.93;;;20.00;99.90;;;;;;5095027;28;20457;-58
2022/08/12 04:26:26;;;;;;;3.53;2.90;;;20.00;99.90;;;;;;5094869;28;20467;-64
2022/08/12 04:28:55;;;;;;;5.63;3.53;;;19.90;99.90;;;;;;5095110;28;20458;-60
2022/08/12 04:31:30;;;;;;;4.23;3.00;;;20.00;99.90;;;;;;5094893;28;20537;-58
2022/08/12 04:33:58;;;;;;;8.80;2.67;;;20.00;99.90;;;;;;5094889;28;20461;-58
2022/08/12 04:36:25;;;;;;;3.70;3.07;;;20.00;99.90;;;;;;5094349;28;20463;-58
2022/08/12 04:38:54;;;;;;;2.90;2.60;;;20.00;99.90;;;;;;5094665;28;20459;-54
2022/08/12 04:41:23;;;;;;;3.80;3.03;;;20.00;99.90;;;;;;5094466;28;20477;-59
2022/08/12 04:43:50;;;;;;;5.90;3.27;;;20.00;99.90;;;;;;5095177;28;20460;-61
2022/08/12 04:46:30;;;;;;;5.00;2.73;;;20.10;99.90;;;;;;5094582;28;20976;-57
2022/08/12 04:51:35;;;;;;;4.63;2.77;;;20.10;99.90;;;;;;5210945;22;20466;-60
2022/08/12 04:54:08;;;;;;;4.53;3.50;;;20.00;99.90;;;;;;5095215;28;20506;-60
2022/08/12 04:56:39;;;;;;;4.47;2.67;;;20.00;99.90;;;;;;5096671;28;20419;-62
2022/08/12 04:59:06;;;;;;;6.43;3.10;;;20.00;99.90;;;;;;5098684;28;20435;-59
2022/08/12 05:01:37;;;;;;;4.63;3.40;;;20.00;99.90;;;;;;5099212;28;20460;-59
2022/08/12 05:04:05;;;;;;;4.33;2.70;;;20.00;99.90;;;;;;5098705;28;20423;-61
2022/08/12 05:06:33;;;;;;;7.70;2.97;;;20.10;99.90;;;;;;5098481;28;20502;-62
2022/08/12 05:09:00;;;;;;;5.83;3.03;;;20.10;99.90;;;;;;5098544;28;20442;-62
2022/08/12 05:11:29;;;;;;;6.20;3.03;;;20.20;99.90;;;;;;5099217;28;20446;-57
2022/08/12 05:13:59;;;;;;;4.73;3.23;;;20.20;99.90;;;;;;5098255;28;20725;-62
2022/08/12 05:16:26;;;;;;;5.30;2.90;;;20.20;99.90;;;;;;5098427;28;20464;-60
2022/08/12 05:18:53;;;;;;;5.30;2.60;;;20.20;99.90;;;;;;5098280;28;20463;-62
2022/08/12 05:21:20;;;;;;;5.43;2.67;;;20.30;99.90;;;;;;5098726;28;20438;-62
2022/08/12 05:23:47;;;;;;;6.20;3.03;;;20.30;99.90;;;;;;5098238;28;20462;-62
2022/08/12 05:26:14;;;;;;;10.33;2.87;;;20.40;99.90;;;;;;5098145;28;20518;-59
2022/08/12 05:28:42;;;;;;;8.40;3.10;;;20.40;99.90;;;;;;5098090;28;20454;-57
2022/08/12 05:31:10;;;;;;;7.83;2.90;;;20.50;99.90;;;;;;5103176;28;20457;-62
2022/08/12 05:33:38;;;;;;;3.10;2.40;;;20.50;99.90;;;;;;5098310;28;20584;-62
2022/08/12 05:36:07;;;;;;;3.63;2.83;;;20.60;99.50;;;;;;5098337;28;20482;-61
2022/08/12 05:41:19;;;;;;;3.80;3.00;;;20.70;99.20;;;;;;5097612;28;20452;-62
2022/08/12 05:43:50;;;;;;;3.70;2.90;;;20.70;99.20;;;;;;5097567;28;20953;-63
2022/08/12 05:46:21;;;;;;;4.33;3.37;;;20.80;99.00;;;;;;5097951;28;20458;-61
2022/08/12 05:48:49;;;;;;;8.23;3.37;;;20.90;99.00;;;;;;5098080;28;20445;-60
2022/08/12 05:51:16;;;;;;;7.83;3.33;;;20.90;98.90;;;;;;5098176;28;20463;-61
2022/08/12 05:53:43;;;;;;;4.20;3.07;;;21.00;98.80;;;;;;5097410;28;20486;-62
2022/08/12 05:56:20;;;;;;;4.60;2.73;;;21.00;98.60;;;;;;5097980;28;20446;-60
2022/08/12 05:58:49;;;;;;;10.77;3.47;;;21.10;98.50;;;;;;5098127;28;20441;-61
2022/08/12 06:01:16;;;;;;;4.00;3.00;;;21.20;98.80;;;;;;5101766;28;20462;-62
2022/08/12 06:03:43;;;;;;;7.60;3.53;;;21.20;98.40;;;;;;5104755;28;20447;-62
2022/08/12 06:06:10;;;;;;;4.57;3.27;;;21.30;98.10;;;;;;5107387;28;20481;-62
2022/08/12 06:08:47;;;;;;;6.97;2.77;;;21.40;97.80;;;;;;5114864;28;20457;-61
2022/08/12 06:11:15;;;;;;;6.90;2.80;;;21.50;97.60;;;;;;5115419;28;20491;-55
2022/08/12 06:13:43;;;;;;;4.27;3.50;;;21.50;97.30;;;;;;5108407;28;20467;-62
2022/08/12 06:16:13;;;;;;;6.03;3.73;;;21.60;97.20;;;;;;5095940;28;20550;-63
2022/08/12 06:18:40;;;;;;;5.63;3.50;;;21.70;97.20;;;;;;5095985;28;20439;-61
2022/08/12 06:21:08;;;;;;;5.07;3.90;;;21.70;97.10;;;;;;5096676;28;20516;-63
2022/08/12 06:23:35;;;;;;;7.03;3.10;;;21.80;97.10;;;;;;5097574;28;20450;-61
2022/08/12 06:26:03;;;;;;;7.00;3.40;;;21.90;96.90;;;;;;5097493;28;20498;-58
2022/08/12 06:28:30;;;;;;;8.33;3.30;;;22.00;97.50;;;;;;5103628;28;20466;-62
2022/08/12 06:30:58;;;;;;;5.67;3.10;;;22.10;97.00;;;;;;5113883;28;20477;-57
2022/08/12 06:33:26;;;;;;;5.87;3.70;;;22.10;97.10;;;;;;5117047;28;20465;-60
2022/08/12 06:35:53;;;;;;;5.27;2.60;;;22.20;96.60;;;;;;5116968;28;20472;-61
2022/08/12 06:38:21;;;;;;;4.90;2.73;;;22.30;96.80;;;;;;5117160;28;20410;-63
2022/08/12 06:43:39;;;;;;;4.27;2.93;;;22.40;95.50;;;;;;5116528;28;20526;-62
2022/08/12 06:46:08;;;;;;;5.97;2.73;;;22.50;95.00;;;;;;5116861;28;20532;-62
2022/08/12 06:48:36;;;;;;;5.90;2.13;;;22.60;94.00;;;;;;5116602;28;20506;-61
2022/08/12 06:51:07;;;;;;;10.77;2.63;;;22.70;92.70;;;;;;5116437;28;20469;-61
2022/08/12 06:53:34;;;;;;;5.23;2.50;;;22.80;92.80;;;;;;5116784;28;20468;-62
2022/08/12 06:56:01;;;;;;;3.63;2.20;;;22.90;92.30;;;;;;5101178;28;20446;-62
2022/08/12 06:58:30;;;;;;;5.03;2.30;;;23.10;90.90;;;;;;5095565;28;20613;-60
2022/08/12 07:00:58;;;;;;;7.20;2.80;;;23.20;90.60;;;;;;5095747;28;20425;-59
2022/08/12 07:03:27;;;;;;;11.07;2.80;;;23.40;90.00;;;;;;5095664;28;20491;-60
2022/08/12 07:05:57;;;;;;;5.00;2.50;;;23.40;90.10;;;;;;5096009;28;20545;-63
2022/08/12 07:08:27;;;;;;;2.83;2.07;;;23.50;90.10;;;;;;5095689;28;20431;-63
2022/08/12 07:10:57;;;;;;;1.93;1.73;;;23.60;89.60;;;;;;5094569;28;20438;-59
2022/08/12 07:13:26;;;;;;;4.93;2.83;;;23.70;90.80;;;;;;5095448;28;20474;-63
2022/08/12 07:15:54;;;;;;;4.30;2.50;;;23.80;87.80;;;;;;5095479;28;20514;-61
2022/08/12 07:18:22;;;;;;;4.17;2.00;;;24.00;88.00;;;;;;5096027;28;20442;-62
2022/08/12 07:20:49;;;;;;;5.73;2.77;;;24.10;88.30;;;;;;5096176;28;20468;-61
2022/08/12 07:23:18;;;;;;;10.13;2.60;;;24.20;89.70;;;;;;5109810;28;20488;-58
2022/08/12 07:25:45;;;;;;;7.40;3.43;;;24.30;90.00;;;;;;5115989;28;20437;-60
2022/08/12 07:28:13;;;;;;;8.80;2.33;;;24.40;89.40;;;;;;5107290;28;20469;-62
2022/08/12 07:30:43;;;;;;;5.23;2.57;;;24.50;88.50;;;;;;5095605;28;20478;-58
2022/08/12 07:33:12;;;;;;;10.90;3.27;;;24.60;87.20;;;;;;5095073;28;20422;-58
2022/08/12 07:35:44;;;;;;;5.10;2.17;;;24.70;86.20;;;;;;5095276;28;20422;-58
2022/08/12 07:38:30;;;;;;;3.80;2.50;;;24.90;83.70;;;;;;5094810;28;20434;-55
2022/08/12 07:41:02;;;;;;;2.70;2.00;;;24.90;83.30;;;;;;5095577;28;20427;-58
2022/08/12 07:43:29;;;;;;;5.60;2.27;;;25.10;83.80;;;;;;5094960;28;20434;-62
2022/08/12 07:45:57;;;;;;;5.63;3.47;;;25.30;79.80;;;;;;5095291;28;20456;-59
2022/08/12 07:48:24;;;;;;;6.03;2.63;;;25.40;82.10;;;;;;5094714;28;20446;-58
2022/08/12 07:50:52;;;;;;;4.97;3.03;;;25.60;78.50;;;;;;5094958;28;20442;-58
2022/08/12 07:53:19;;;;;;;3.33;2.73;;;25.80;77.50;;;;;;5094815;28;20503;-58
2022/08/12 07:55:47;;;;;;;4.27;1.93;;;26.50;75.60;;;;;;5094987;28;20477;-58
2022/08/12 07:58:17;;;;;;;7.00;2.40;;;28.00;73.10;;;;;;5094019;28;20503;-58
2022/08/12 08:00:44;;;;;;;3.30;2.30;;;30.00;65.80;;;;;;5094427;28;20442;-60
2022/08/12 08:03:12;;;;;;;6.53;2.30;;;32.10;58.50;;;;;;5095116;28;20458;-56
2022/08/12 08:05:44;;;;;;;5.37;2.10;;;33.90;52.30;;;;;;5094839;28;20439;-60
2022/08/12 08:08:16;;;;;;;3.23;2.10;;;35.30;48.40;;;;;;5095682;28;20470;-62
2022/08/12 08:10:44;;;;;;;3.80;2.50;;;36.60;45.00;;;;;;5095795;28;20434;-61
2022/08/12 08:13:12;;;;;;;2.70;2.30;;;37.80;42.70;;;;;;5095385;28;20498;-57
2022/08/12 08:15:40;;;;;;;2.10;1.90;;;38.90;40.10;;;;;;5095205;28;20458;-56
2022/08/12 08:18:09;;;;;;;2.90;1.67;;;39.60;38.10;;;;;;5098587;28;20450;-60
2022/08/12 08:20:39;;;;;;;2.10;1.90;;;40.20;37.30;;;;;;5108095;28;20469;-60
2022/08/12 08:23:09;;;;;;;2.27;1.70;;;40.80;35.70;;;;;;5106419;28;20520;-57
2022/08/12 08:25:38;;;;;;;3.83;2.33;;;41.20;34.50;;;;;;5105129;28;20430;-62
2022/08/12 08:28:08;;;;;;;1.70;1.60;;;41.60;34.30;;;;;;5104858;28;20451;-61
2022/08/12 08:30:38;;;;;;;2.93;2.10;;;41.70;33.30;;;;;;5106136;28;20448;-62
2022/08/12 08:33:09;;;;;;;2.33;2.10;;;41.80;32.60;;;;;;5101167;28;20434;-60
2022/08/12 08:35:37;;;;;;;2.20;2.00;;;41.50;33.10;;;;;;5118762;28;20469;-58
2022/08/12 08:38:09;;;;;;;4.43;2.10;;;41.40;32.90;;;;;;5118452;28;20522;-60
2022/08/12 08:43:22;;;;;;;2.27;2.07;;;41.30;31.90;;;;;;5093736;28;20417;-61
2022/08/12 08:45:50;;;;;;;2.23;2.03;;;41.40;32.00;;;;;;5098260;28;20494;-62
2022/08/12 08:48:17;;;;;;;6.93;6.23;;;41.30;31.90;;;;;;5098893;28;20446;-60
2022/08/12 08:50:44;;;;;;;4.70;2.50;;;41.40;31.50;;;;;;5097926;28;20430;-60
2022/08/12 08:53:11;;;;;;;3.20;2.07;;;41.30;31.50;;;;;;5097546;28;20452;-59
2022/08/12 08:55:39;;;;;;;3.30;2.80;;;41.20;31.30;;;;;;5097901;28;20513;-62
2022/08/12 08:58:09;;;;;;;2.20;2.00;;;41.20;31.50;;;;;;5097628;28;20448;-60
2022/08/12 09:00:38;;;;;;;3.77;2.37;;;41.20;32.00;;;;;;5103763;28;20430;-61
2022/08/12 09:03:07;;;;;;;8.30;2.13;;;41.10;31.50;;;;;;5112107;28;20472;-62
2022/08/12 09:05:34;;;;;;;4.67;2.10;;;41.10;31.60;;;;;;5098028;28;20535;-60
2022/08/12 09:08:04;;;;;;;5.40;2.00;;;41.10;31.90;;;;;;5098676;28;20434;-62
2022/08/12 09:10:32;;;;;;;2.67;1.93;;;41.30;31.10;;;;;;5098577;28;20495;-60
2022/08/12 09:15:47;;;;;;;3.33;2.70;;;41.40;30.60;;;;;;5097507;28;20759;-60
2022/08/12 09:18:17;;;;;;;2.40;2.20;;;41.40;30.60;;;;;;5113198;28;20449;-61
2022/08/12 09:20:49;;;;;;;2.10;1.90;;;41.70;30.30;;;;;;5117561;28;20461;-59
2022/08/12 09:23:17;;;;;;;3.27;2.23;;;41.70;30.70;;;;;;5117188;28;20461;-61
2022/08/12 09:25:47;;;;;;;3.60;2.30;;;41.40;30.70;;;;;;5114747;28;20476;-59
2022/08/12 09:28:15;;;;;;;2.70;2.00;;;41.20;30.70;;;;;;5115188;28;20445;-60
2022/08/12 09:30:44;;;;;;;2.37;2.17;;;41.00;31.00;;;;;;5115763;28;20445;-61
2022/08/12 09:33:12;;;;;;;2.50;1.90;;;41.20;31.20;;;;;;5116624;28;20437;-60
2022/08/12 09:35:43;;;;;;;2.03;1.93;;;41.10;31.00;;;;;;5116261;28;20488;-61
2022/08/12 09:38:14;;;;;;;5.37;2.10;;;41.00;30.70;;;;;;5101834;28;20433;-59
2022/08/12 09:40:41;;;;;;;2.00;1.80;;;40.80;30.90;;;;;;5095572;28;20561;-61
2022/08/12 09:45:52;;;;;;;2.87;2.57;;;40.80;31.00;;;;;;5094713;28;20527;-59
2022/08/12 09:48:21;;;;;;;2.20;2.00;;;40.70;31.00;;;;;;5095159;28;20442;-59
2022/08/12 09:50:52;;;;;;;5.10;2.47;;;40.60;30.50;;;;;;5096672;28;20477;-59
2022/08/12 09:53:23;;;;;;;5.17;2.00;;;40.70;30.50;;;;;;5096253;28;20495;-59
2022/08/12 09:55:51;;;;;;;3.90;2.20;;;40.40;30.70;;;;;;5094530;28;20466;-60
2022/08/12 09:58:27;;;;;;;5.33;2.77;;;40.10;31.30;;;;;;5095650;28;20490;-62
2022/08/12 10:01:00;;;;;;;2.13;1.73;;;40.10;31.60;;;;;;5095251;28;20426;-62
2022/08/12 10:03:28;;;;;;;3.57;2.07;;;40.10;31.30;;;;;;5096443;28;20470;-62
2022/08/12 10:05:57;;;;;;;3.07;1.70;;;40.30;30.80;;;;;;5097560;28;20465;-58
2022/08/12 10:08:29;;;;;;;2.80;2.00;;;40.70;30.80;;;;;;5097480;28;20506;-62
2022/08/12 10:13:43;;;;;;;2.53;2.17;;;39.90;31.10;;;;;;5093976;28;20406;-60
2022/08/12 10:16:11;;;;;;;5.90;2.20;;;39.40;31.80;;;;;;5092743;28;21025;-61
2022/08/12 10:18:40;;;;;;;4.53;2.07;;;39.20;31.70;;;;;;5092863;28;20431;-62
2022/08/12 10:21:11;;;;;;;2.60;1.70;;;39.10;32.00;;;;;;5100607;28;20487;-61
2022/08/12 10:23:40;;;;;;;2.40;2.17;;;39.10;31.60;;;;;;5114367;28;20430;-61
2022/08/12 10:31:38;;;;;;;3.07;2.37;;;38.90;31.80;;;;;;5113406;28;20437;-62
2022/08/12 10:34:05;;;;;;;3.13;1.90;;;38.80;32.00;;;;;;5112120;28;20448;-62
2022/08/12 10:36:37;;;;;;;9.13;2.30;;;38.70;32.50;;;;;;5113251;28;20465;-61
2022/08/12 10:39:04;;;;;;;2.53;2.00;;;38.70;31.90;;;;;;5113243;28;20429;-61
2022/08/12 10:44:15;;;;;;;4.60;2.67;;;38.60;32.50;;;;;;5111841;28;20467;-61
2022/08/12 10:46:44;;;;;;;2.80;2.00;;;38.40;32.50;;;;;;5091324;28;20431;-64
2022/08/12 10:49:11;;;;;;;2.60;2.10;;;38.00;32.80;;;;;;5090101;28;20474;-62
2022/08/12 10:51:40;;;;;;;2.80;2.27;;;37.80;33.20;;;;;;5089861;28;20446;-61
2022/08/12 10:54:08;;;;;;;3.60;2.27;;;37.50;33.40;;;;;;5089151;28;20560;-60
2022/08/12 10:56:35;;;;;;;3.20;2.23;;;37.20;33.90;;;;;;5089850;28;20442;-61
2022/08/12 10:59:03;;;;;;;3.33;2.00;;;36.90;34.10;;;;;;5089977;28;20550;-63
2022/08/12 11:01:32;;;;;;;4.50;2.53;;;36.50;34.50;;;;;;5087708;28;20427;-62
2022/08/12 11:04:01;;;;;;;3.80;1.73;;;36.30;34.90;;;;;;5087881;28;20457;-63
2022/08/12 11:06:28;;;;;;;3.30;2.60;;;35.90;35.50;;;;;;5088619;28;20469;-62
2022/08/12 11:08:56;;;;;;;9.60;6.63;;;35.80;35.60;;;;;;5087761;28;20452;-62
2022/08/12 11:11:26;;;;;;;8.50;6.43;;;35.70;35.60;;;;;;5087530;28;20473;-57
2022/08/12 11:13:52;;;;;;;3.57;2.10;;;35.70;35.90;;;;;;5087860;28;20438;-63
2022/08/12 11:16:19;;;;;;;3.60;2.50;;;35.50;36.00;;;;;;5087530;28;20481;-63
2022/08/12 11:18:49;;;;;;;3.60;2.57;;;35.20;36.20;;;;;;5087798;28;20442;-63
2022/08/12 11:21:18;;;;;;;3.40;2.37;;;34.70;36.50;;;;;;5087611;28;20476;-63
2022/08/12 11:23:45;;;;;;;2.33;1.83;;;34.60;37.30;;;;;;5087977;28;20462;-61
2022/08/12 11:26:13;;;;;;;3.30;3.00;;;34.70;37.10;;;;;;5088143;28;20534;-62
2022/08/12 11:28:40;;;;;;;4.83;2.30;;;34.80;37.20;;;;;;5089398;28;20495;-61
2022/08/12 11:31:09;;;;;;;3.23;2.03;;;34.80;37.80;;;;;;5088870;28;20498;-63
2022/08/12 11:33:36;;;;;;;3.40;2.47;;;34.80;37.00;;;;;;5089504;28;20434;-63
2022/08/12 11:36:07;;;;;;;9.20;3.20;;;34.80;37.20;;;;;;5091024;28;20550;-62
2022/08/12 11:38:34;;;;;;;2.10;1.87;;;34.80;36.90;;;;;;5090533;28;20450;-62
2022/08/12 11:41:02;;;;;;;2.50;1.97;;;34.80;37.20;;;;;;5089415;28;20470;-58
2022/08/12 11:43:31;;;;;;;3.07;2.60;;;34.70;37.10;;;;;;5087781;28;20422;-61
2022/08/12 11:45:58;;;;;;;4.17;2.27;;;34.40;37.30;;;;;;5087591;28;20442;-61
2022/08/12 11:48:25;;;;;;;2.57;2.27;;;34.20;37.90;;;;;;5088879;28;20446;-61
2022/08/12 11:50:52;;;;;;;3.40;2.20;;;34.20;37.90;;;;;;5087640;28;20521;-61
2022/08/12 11:53:19;;;;;;;3.13;2.10;;;34.20;38.10;;;;;;5087486;28;20442;-64
2022/08/12 11:55:46;;;;;;;6.30;3.27;;;34.00;38.30;;;;;;5087386;28;20474;-62
2022/08/12 11:58:13;;;;;;;2.60;1.97;;;33.80;38.30;;;;;;5087518;28;20452;-64
2022/08/12 12:00:41;;;;;;;2.83;2.43;;;33.40;38.50;;;;;;5087193;28;20438;-61
2022/08/12 12:03:08;;;;;;;5.20;2.53;;;33.00;39.10;;;;;;5087935;28;20474;-61
2022/08/12 12:05:35;;;;;;;2.47;2.27;;;32.70;39.50;;;;;;5087783;28;20435;-63
2022/08/12 12:08:03;;;;;;;7.83;1.70;;;32.70;39.80;;;;;;5088802;28;20463;-60
2022/08/12 12:10:30;;;;;;;2.40;2.20;;;32.70;39.50;;;;;;5086580;28;20456;-63
2022/08/12 12:12:57;;;;;;;2.30;2.10;;;32.70;39.20;;;;;;5085877;28;20475;-63
2022/08/12 12:15:25;;;;;;;3.10;2.07;;;32.80;39.70;;;;;;5087096;28;20474;-58
2022/08/12 12:17:54;;;;;;;2.70;1.60;;;32.70;39.80;;;;;;5086699;28;20466;-64
2022/08/12 12:20:21;;;;;;;4.43;2.50;;;32.80;39.60;;;;;;5086000;28;20518;-58
2022/08/12 12:22:48;;;;;;;3.33;2.20;;;32.80;39.30;;;;;;5087385;28;20474;-61
2022/08/12 12:25:15;;;;;;;3.30;2.13;;;32.80;39.60;;;;;;5090666;28;20435;-62
2022/08/12 12:27:55;;;;;;;3.80;2.60;;;32.80;38.80;;;;;;5090019;28;20466;-62
2022/08/12 12:30:22;;;;;;;1.97;1.87;;;32.80;38.70;;;;;;5089928;28;20536;-61
2022/08/12 12:32:49;;;;;;;3.80;3.33;;;32.80;39.10;;;;;;5088149;28;20458;-60
2022/08/12 12:35:17;;;;;;;4.17;2.20;;;32.60;39.40;;;;;;5087958;28;20494;-60
2022/08/12 12:37:54;;;;;;;5.00;2.13;;;32.30;39.70;;;;;;5088529;28;20476;-60
2022/08/12 12:40:22;;;;;;;7.50;2.30;;;32.10;40.30;;;;;;5088667;28;20461;-62
2022/08/12 12:42:49;;;;;;;2.63;2.27;;;32.00;39.60;;;;;;5088914;28;20514;-62
2022/08/12 12:45:16;;;;;;;4.10;2.40;;;32.00;39.80;;;;;;5089139;28;20438;-61
2022/08/12 12:47:58;;;;;;;2.77;1.87;;;31.90;40.40;;;;;;5089255;28;20449;-62
2022/08/12 12:50:28;;;;;;;2.50;2.30;;;31.90;40.50;;;;;;5089795;28;20476;-62
2022/08/12 12:52:55;;;;;;;3.60;2.90;;;31.90;40.30;;;;;;5089936;28;20435;-59
2022/08/12 12:55:23;;;;;;;2.90;1.90;;;32.00;40.20;;;;;;5090288;28;20489;-60
2022/08/12 12:57:50;;;;;;;2.23;1.90;;;32.20;39.90;;;;;;5090225;28;20481;-60
2022/08/12 13:00:18;;;;;;;2.03;1.83;;;32.40;39.90;;;;;;5090835;28;20507;-59
2022/08/12 13:05:31;;;;;;;4.30;1.73;;;32.70;39.70;;;;;;5089169;28;20450;-60
2022/08/12 13:08:00;;;;;;;2.93;1.77;;;32.60;39.70;;;;;;5089790;28;20445;-59
2022/08/12 13:10:31;;;;;;;3.27;1.83;;;32.80;39.90;;;;;;5090570;28;20489;-62
2022/08/12 13:13:01;;;;;;;3.73;2.30;;;32.80;40.30;;;;;;5088121;28;20441;-57
2022/08/12 13:15:28;;;;;;;9.63;2.93;;;32.50;40.30;;;;;;5087684;28;20589;-60
2022/08/12 13:17:57;;;;;;;3.70;2.10;;;32.20;40.20;;;;;;5088744;28;20499;-61
2022/08/12 13:20:24;;;;;;;3.53;2.30;;;31.90;40.50;;;;;;5101573;28;20498;-55
2022/08/12 13:22:52;;;;;;;2.60;2.40;;;31.80;41.00;;;;;;5105712;28;20506;-56
2022/08/12 13:25:19;;;;;;;3.43;1.97;;;31.90;40.40;;;;;;5105824;28;20457;-52
2022/08/12 13:27:48;;;;;;;2.40;1.80;;;31.90;40.20;;;;;;5105888;28;20445;-50
2022/08/12 13:30:17;;;;;;;3.33;2.20;;;31.90;40.70;;;;;;5105970;28;20470;-52
2022/08/12 13:32:49;;;;;;;3.23;2.33;;;31.90;40.40;;;;;;5106342;28;20445;-54
2022/08/12 13:35:16;;;;;;;2.73;2.00;;;31.80;41.20;;;;;;5105372;28;20534;-56
2022/08/12 13:37:43;;;;;;;4.80;2.20;;;31.90;41.50;;;;;;5105787;28;20448;-53
2022/08/12 13:40:12;;;;;;;7.73;1.80;;;31.90;41.00;;;;;;5106904;28;20469;-53
2022/08/12 13:42:39;;;;;;;2.47;2.27;;;31.90;41.00;;;;;;5107529;28;20889;-55
2022/08/12 13:45:07;;;;;;;3.80;2.80;;;31.90;41.30;;;;;;5106324;28;20485;-51
2022/08/12 13:47:56;;;;;;;3.30;2.50;;;31.70;41.60;;;;;;5104748;28;20921;-54
2022/08/12 13:50:28;;;;;;;3.40;3.10;;;31.60;41.90;;;;;;5104713;28;20517;-54
2022/08/12 13:52:56;;;;;;;3.37;3.03;;;31.60;42.20;;;;;;5104597;28;20425;-55
2022/08/12 13:55:24;;;;;;;4.73;2.73;;;31.70;41.70;;;;;;5106577;28;20509;-52
2022/08/12 13:57:52;;;;;;;4.10;3.23;;;31.80;42.00;;;;;;5107126;28;20437;-56
2022/08/12 14:00:20;;;;;;;2.93;1.87;;;31.80;42.00;;;;;;5106181;28;20886;-56
2022/08/12 14:02:47;;;;;;;2.50;2.30;;;31.70;41.80;;;;;;5106018;28;20434;-55
2022/08/12 14:05:14;;;;;;;3.03;2.47;;;31.50;42.00;;;;;;5105641;28;20453;-55
2022/08/12 14:07:54;;;;;;;2.73;2.30;;;31.30;42.10;;;;;;5104776;28;20450;-54
2022/08/12 14:10:37;;;;;;;3.10;2.57;;;31.10;42.20;;;;;;5104966;28;20944;-54
2022/08/12 14:13:10;;;;;;;6.90;2.63;;;30.90;41.80;;;;;;5104791;28;20442;-55
2022/08/12 14:15:38;;;;;;;4.10;3.00;;;30.80;42.70;;;;;;5104559;28;20491;-53
2022/08/12 14:18:16;;;;;;;3.57;2.73;;;30.70;42.80;;;;;;5104564;28;20450;-56
2022/08/12 14:20:45;;;;;;;2.23;2.00;;;30.90;42.40;;;;;;5103924;28;20431;-49
2022/08/12 14:23:12;;;;;;;2.47;1.97;;;31.10;41.90;;;;;;5105286;28;20451;-52
2022/08/12 14:25:39;;;;;;;3.40;2.67;;;31.30;42.20;;;;;;5105639;28;20437;-48
2022/08/12 14:28:11;;;;;;;3.40;2.37;;;31.40;41.60;;;;;;5105035;28;20441;-49
2022/08/12 14:30:50;;;;;;;2.10;1.90;;;31.50;41.50;;;;;;5106192;28;20541;-50
2022/08/12 14:33:17;;;;;;;2.63;2.43;;;31.70;41.40;;;;;;5107031;28;20437;-50
2022/08/12 14:35:44;;;;;;;3.00;2.30;;;31.80;41.20;;;;;;5107415;28;20488;-52
2022/08/12 14:38:17;;;;;;;2.30;2.07;;;32.00;41.30;;;;;;5106332;28;20465;-50
2022/08/12 14:40:44;;;;;;;3.80;2.50;;;32.10;40.40;;;;;;5106452;28;20438;-52
2022/08/12 14:43:14;;;;;;;4.10;2.47;;;32.20;40.30;;;;;;5107781;28;20465;-55
2022/08/12 14:45:42;;;;;;;5.60;2.30;;;32.20;40.70;;;;;;5107467;28;20480;-53
2022/08/12 14:48:09;;;;;;;3.70;2.47;;;32.20;40.20;;;;;;5107438;28;20480;-53
2022/08/12 14:50:37;;;;;;;3.60;2.63;;;32.10;40.30;;;;;;5106206;28;20477;-53